Time;durP1;ratioP1;P1;durP2;ratioP2;P2;SDS_P1;SDS_P2;PMS_P1;PMS_P2;Temp;Humidity;BMP_temperature;BMP_pressure;BME280_temperature;BME280_humidity;BME280_pressure;Samples;Min_cycle;Max_cycle;Signal;HPM_P1;HPM_P2
2021/03/25 00:00:59;;;;;;;40.50;22.23;;;;;;;;;;5000443;28;20026;-86
2021/03/25 00:03:25;;;;;;;35.42;21.38;;;;;;;;;;5018074;28;20030;-86
2021/03/25 00:05:52;;;;;;;35.25;20.65;;;;;;;;;;5017574;28;20053;-86
2021/03/25 00:08:20;;;;;;;30.67;18.80;;;;;;;;;;5017868;28;20052;-87
2021/03/25 00:10:46;;;;;;;36.33;21.55;;;;;;;;;;5017853;28;20026;-86
2021/03/25 00:13:12;;;;;;;41.45;23.88;;;;;;;;;;5017677;28;20026;-86
2021/03/25 00:15:38;;;;;;;39.08;22.77;;;;;;;;;;5017644;28;20030;-86
2021/03/25 00:18:05;;;;;;;43.28;24.98;;;;;;;;;;5019979;28;20425;-86
2021/03/25 00:20:31;;;;;;;51.13;29.20;;;;;;;;;;5021445;28;20026;-86
2021/03/25 00:22:57;;;;;;;55.17;31.05;;;;;;;;;;5021460;28;20021;-87
2021/03/25 00:25:28;;;;;;;52.83;29.83;;;;;;;;;;5021796;28;20025;-86
2021/03/25 00:27:54;;;;;;;54.38;30.13;;;;;;;;;;5021669;28;20022;-86
2021/03/25 00:30:22;;;;;;;51.85;29.65;;;;;;;;;;5020999;28;20049;-86
2021/03/25 00:32:49;;;;;;;61.83;32.40;;;;;;;;;;5003648;28;20042;-86
2021/03/25 00:35:15;;;;;;;71.05;35.80;;;;;;;;;;5021412;28;20030;-86
2021/03/25 00:37:41;;;;;;;84.10;41.38;;;;;;;;;;5020419;28;20401;-86
2021/03/25 00:40:08;;;;;;;79.75;39.17;;;;;;;;;;5021287;28;20063;-86
2021/03/25 00:42:34;;;;;;;50.53;27.20;;;;;;;;;;5021003;28;20018;-86
2021/03/25 00:48:04;;;;;;;46.17;25.95;;;;;;;;;;5021302;28;20140;-87
2021/03/25 00:50:30;;;;;;;78.65;36.15;;;;;;;;;;5020906;28;20030;-86
2021/03/25 00:52:56;;;;;;;94.82;41.63;;;;;;;;;;5021192;28;20021;-86
2021/03/25 00:55:23;;;;;;;86.57;39.83;;;;;;;;;;5003331;28;20113;-85
2021/03/25 00:57:49;;;;;;;87.65;37.72;;;;;;;;;;5003033;28;20371;-85
2021/03/25 01:03:21;;;;;;;58.60;29.10;;;;;;;;;;5020776;28;20392;-85
2021/03/25 01:05:48;;;;;;;76.13;38.03;;;;;;;;;;5020438;28;20022;-86
2021/03/25 01:08:29;;;;;;;134.13;55.70;;;;;;;;;;5020477;28;20029;-86
2021/03/25 01:11:00;;;;;;;111.22;46.60;;;;;;;;;;5020512;28;20042;-86
2021/03/25 01:13:31;;;;;;;135.00;55.20;;;;;;;;;;5020479;28;20026;-86
2021/03/25 01:15:57;;;;;;;232.32;86.70;;;;;;;;;;5002947;28;20049;-86
2021/03/25 01:18:24;;;;;;;153.38;59.92;;;;;;;;;;5003124;28;20026;-86
2021/03/25 01:20:50;;;;;;;108.55;47.30;;;;;;;;;;5002539;28;20038;-88
2021/03/25 01:23:16;;;;;;;86.47;39.00;;;;;;;;;;5020254;28;20026;-88
2021/03/25 01:25:43;;;;;;;93.03;44.05;;;;;;;;;;5020209;28;20032;-88
2021/03/25 01:28:10;;;;;;;93.40;42.13;;;;;;;;;;5019782;28;20329;-86
2021/03/25 01:30:36;;;;;;;67.22;34.50;;;;;;;;;;5020065;28;20042;-87
2021/03/25 01:33:05;;;;;;;59.08;29.40;;;;;;;;;;5020167;28;20034;-86
2021/03/25 01:35:32;;;;;;;52.95;29.98;;;;;;;;;;5019797;28;20030;-85
2021/03/25 01:37:58;;;;;;;51.60;28.98;;;;;;;;;;5020169;28;20072;-85
2021/03/25 01:40:24;;;;;;;47.45;27.48;;;;;;;;;;5019805;28;20316;-86
2021/03/25 01:42:50;;;;;;;48.53;25.70;;;;;;;;;;5020130;28;20088;-86
2021/03/25 01:45:28;;;;;;;44.95;26.15;;;;;;;;;;5019858;28;20029;-86
2021/03/25 01:47:55;;;;;;;40.33;23.70;;;;;;;;;;5019931;28;20029;-86
2021/03/25 01:50:21;;;;;;;39.50;23.05;;;;;;;;;;5019950;28;20029;-86
2021/03/25 01:52:47;;;;;;;35.85;21.52;;;;;;;;;;5019985;28;20026;-86
2021/03/25 01:55:36;;;;;;;33.78;20.88;;;;;;;;;;5019777;28;20037;-86
2021/03/25 01:58:21;;;;;;;37.83;20.98;;;;;;;;;;5002445;28;20157;-86
2021/03/25 02:01:08;;;;;;;35.63;20.73;;;;;;;;;;5019654;28;20038;-86
2021/03/25 02:03:34;;;;;;;35.92;20.27;;;;;;;;;;5019260;28;20030;-86
2021/03/25 02:06:32;;;;;;;37.28;21.52;;;;;;;;;;5002185;28;20064;-86
2021/03/25 02:09:10;;;;;;;35.53;20.85;;;;;;;;;;4924252;29;20032;-86
2021/03/25 02:11:39;;;;;;;43.03;22.88;;;;;;;;;;4924330;28;20040;-86
2021/03/25 02:14:05;;;;;;;46.47;25.35;;;;;;;;;;4940358;29;20030;-86
2021/03/25 02:19:35;;;;;;;;;;;;;;;;;;4940680;29;20071;-86
2021/03/25 02:22:19;;;;;;;173.90;66.20;;;;;;;;;;4939997;29;19911;-86
2021/03/25 02:24:55;;;;;;;121.68;49.42;;;;;;;;;;4939918;29;20036;-87
2021/03/25 02:27:39;;;;;;;122.45;50.63;;;;;;;;;;4940013;29;20131;-86
2021/03/25 02:30:06;;;;;;;109.43;46.60;;;;;;;;;;4939794;29;20087;-87
2021/03/25 02:32:34;;;;;;;102.80;45.90;;;;;;;;;;4923712;29;20119;-87
2021/03/25 02:35:14;;;;;;;99.22;44.47;;;;;;;;;;4939828;29;20112;-87
2021/03/25 02:37:41;;;;;;;91.32;37.35;;;;;;;;;;4923796;29;20038;-86
2021/03/25 02:40:19;;;;;;;65.05;32.25;;;;;;;;;;4938703;29;20074;-86
2021/03/25 02:43:06;;;;;;;47.60;27.40;;;;;;;;;;4939722;29;20099;-86
2021/03/25 02:45:33;;;;;;;43.13;25.00;;;;;;;;;;5011162;28;20034;-86
2021/03/25 02:48:11;;;;;;;43.42;24.17;;;;;;;;;;5018613;28;20018;-86
2021/03/25 02:50:42;;;;;;;37.92;22.42;;;;;;;;;;5018567;28;20030;-87
2021/03/25 02:53:31;;;;;;;36.10;21.48;;;;;;;;;;5018545;28;20017;-87
2021/03/25 02:56:00;;;;;;;33.53;20.08;;;;;;;;;;5008490;28;20038;-87
2021/03/25 02:58:28;;;;;;;39.05;21.35;;;;;;;;;;5018620;28;20049;-86
2021/03/25 03:01:05;;;;;;;42.70;21.23;;;;;;;;;;5018036;28;20056;-87
2021/03/25 03:03:37;;;;;;;34.45;21.38;;;;;;;;;;5019044;28;20045;-87
2021/03/25 03:06:04;;;;;;;40.65;22.35;;;;;;;;;;5018558;28;20471;-87
2021/03/25 03:08:34;;;;;;;36.47;22.77;;;;;;;;;;5018232;28;20412;-87
2021/03/25 03:11:03;;;;;;;44.03;25.02;;;;;;;;;;5018351;28;20021;-87
2021/03/25 03:13:30;;;;;;;42.78;25.42;;;;;;;;;;5018282;28;20105;-87
2021/03/25 03:16:02;;;;;;;44.33;25.65;;;;;;;;;;5000918;28;20026;-87
2021/03/25 03:18:51;;;;;;;38.72;22.83;;;;;;;;;;5018524;28;20045;-87
2021/03/25 03:21:24;;;;;;;40.78;23.15;;;;;;;;;;5018509;28;20079;-87
2021/03/25 03:23:51;;;;;;;43.38;24.33;;;;;;;;;;5018125;28;20030;-87
2021/03/25 03:26:21;;;;;;;42.85;23.65;;;;;;;;;;5018225;28;20026;-87
2021/03/25 03:28:48;;;;;;;46.10;25.27;;;;;;;;;;5018485;28;20025;-87
2021/03/25 03:31:18;;;;;;;44.53;26.70;;;;;;;;;;5018001;28;20046;-86
2021/03/25 03:33:50;;;;;;;47.47;26.85;;;;;;;;;;5000471;28;20092;-87
2021/03/25 03:36:16;;;;;;;;;;;;;;;;;;5001105;28;20029;-86
2021/03/25 03:38:50;;;;;;;48.10;27.83;;;;;;;;;;5018233;28;19909;-85
2021/03/25 03:41:18;;;;;;;46.92;27.33;;;;;;;;;;5000460;28;20030;-85
2021/03/25 03:43:45;;;;;;;45.78;27.42;;;;;;;;;;5017896;28;20037;-86
2021/03/25 03:46:17;;;;;;;49.05;28.80;;;;;;;;;;5000112;28;20363;-85
2021/03/25 03:48:48;;;;;;;53.65;31.00;;;;;;;;;;5017869;28;20076;-85
2021/03/25 03:51:21;;;;;;;59.50;29.80;;;;;;;;;;5017623;28;20064;-85
2021/03/25 03:53:47;;;;;;;57.72;31.00;;;;;;;;;;5017882;28;20044;-86
2021/03/25 03:56:36;;;;;;;69.43;38.47;;;;;;;;;;5017765;28;20053;-87
2021/03/25 03:59:06;;;;;;;82.00;42.90;;;;;;;;;;4938670;29;20458;-86
2021/03/25 04:01:56;;;;;;;74.63;44.05;;;;;;;;;;4938432;29;20046;-86
2021/03/25 04:04:33;;;;;;;72.68;39.38;;;;;;;;;;4938555;29;20043;-87
2021/03/25 04:07:02;;;;;;;68.90;38.60;;;;;;;;;;4922627;29;20060;-85
2021/03/25 04:09:35;;;;;;;69.95;37.45;;;;;;;;;;4938517;29;20040;-87
2021/03/25 04:12:12;;;;;;;57.95;32.92;;;;;;;;;;4938446;29;20524;-87
2021/03/25 04:14:46;;;;;;;60.35;34.10;;;;;;;;;;4938593;29;20087;-88
2021/03/25 04:17:14;;;;;;;63.08;33.17;;;;;;;;;;4938494;29;20059;-86
2021/03/25 04:19:44;;;;;;;64.55;36.33;;;;;;;;;;4922517;29;20028;-87
2021/03/25 04:22:13;;;;;;;65.15;34.67;;;;;;;;;;4938562;29;20028;-88
2021/03/25 04:24:44;;;;;;;68.32;36.88;;;;;;;;;;4922481;29;20375;-88
2021/03/25 04:27:18;;;;;;;63.58;34.95;;;;;;;;;;4938249;29;20337;-87
2021/03/25 04:29:50;;;;;;;63.92;34.97;;;;;;;;;;4922153;29;20052;-87
2021/03/25 04:32:17;;;;;;;71.18;36.95;;;;;;;;;;4936075;29;20327;-87
2021/03/25 04:34:43;;;;;;;65.60;34.67;;;;;;;;;;4938460;29;20140;-88
2021/03/25 04:37:09;;;;;;;66.28;36.60;;;;;;;;;;4998365;28;20065;-85
2021/03/25 04:39:38;;;;;;;72.45;37.65;;;;;;;;;;5017300;28;20033;-86
2021/03/25 04:42:06;;;;;;;65.07;36.83;;;;;;;;;;4999923;28;20114;-86
2021/03/25 04:44:34;;;;;;;66.35;35.75;;;;;;;;;;5017182;28;20128;-86
2021/03/25 04:47:11;;;;;;;68.10;34.88;;;;;;;;;;5017488;28;20018;-85
2021/03/25 04:49:39;;;;;;;68.68;36.85;;;;;;;;;;5017234;28;20049;-86
2021/03/25 04:52:08;;;;;;;67.07;35.65;;;;;;;;;;5017222;28;20045;-86
2021/03/25 04:54:39;;;;;;;74.95;37.45;;;;;;;;;;4999833;28;20022;-86
2021/03/25 04:57:10;;;;;;;68.47;35.53;;;;;;;;;;4999794;28;20052;-87
2021/03/25 04:59:37;;;;;;;61.65;34.00;;;;;;;;;;5017305;28;20028;-85
2021/03/25 05:02:05;;;;;;;62.83;34.85;;;;;;;;;;4999435;28;20048;-87
2021/03/25 05:04:32;;;;;;;60.42;33.50;;;;;;;;;;5020379;28;20029;-86
2021/03/25 05:06:59;;;;;;;56.25;32.63;;;;;;;;;;5020538;28;20017;-87
2021/03/25 05:09:27;;;;;;;64.00;35.00;;;;;;;;;;5020512;28;20033;-87
2021/03/25 05:11:54;;;;;;;84.50;41.60;;;;;;;;;;5020344;28;20022;-87
2021/03/25 05:14:24;;;;;;;70.82;38.00;;;;;;;;;;5020617;28;20042;-86
2021/03/25 05:16:53;;;;;;;64.22;36.40;;;;;;;;;;5003167;28;20341;-87
2021/03/25 05:19:39;;;;;;;65.57;36.20;;;;;;;;;;5020587;28;20097;-87
2021/03/25 05:22:21;;;;;;;62.60;33.67;;;;;;;;;;5003235;28;20022;-87
2021/03/25 05:24:51;;;;;;;60.38;34.05;;;;;;;;;;5020120;28;20049;-87
2021/03/25 05:27:20;;;;;;;58.58;31.25;;;;;;;;;;5002752;28;20463;-86
2021/03/25 05:29:48;;;;;;;57.35;31.30;;;;;;;;;;5020026;28;20054;-86
2021/03/25 05:32:18;;;;;;;67.88;38.80;;;;;;;;;;5020241;28;20076;-87
2021/03/25 05:34:45;;;;;;;85.47;45.65;;;;;;;;;;5020113;28;20091;-86
2021/03/25 05:37:11;;;;;;;76.60;40.08;;;;;;;;;;5020229;28;20033;-86
2021/03/25 05:39:37;;;;;;;65.47;35.17;;;;;;;;;;5020183;28;20325;-86
2021/03/25 05:42:22;;;;;;;112.80;57.33;;;;;;;;;;5020057;28;20025;-86
2021/03/25 05:45:03;;;;;;;94.88;46.38;;;;;;;;;;5019840;28;20026;-86
2021/03/25 05:47:56;;;;;;;90.68;43.42;;;;;;;;;;5019881;28;20107;-86
2021/03/25 05:50:31;;;;;;;80.07;42.28;;;;;;;;;;5020087;28;20022;-86
2021/03/25 05:53:03;;;;;;;75.22;38.00;;;;;;;;;;5019566;28;20425;-86
2021/03/25 05:55:48;;;;;;;72.15;39.15;;;;;;;;;;5002258;28;20332;-86
2021/03/25 05:58:17;;;;;;;93.00;45.67;;;;;;;;;;5019785;28;20053;-87
2021/03/25 06:00:43;;;;;;;85.18;46.10;;;;;;;;;;5001837;28;20421;-87
2021/03/25 06:03:11;;;;;;;110.88;49.33;;;;;;;;;;5019651;28;20121;-86
2021/03/25 06:05:37;;;;;;;87.97;43.42;;;;;;;;;;5019603;28;20039;-86
2021/03/25 06:08:10;;;;;;;91.85;44.28;;;;;;;;;;5002213;28;20021;-86
2021/03/25 06:10:36;;;;;;;93.65;49.65;;;;;;;;;;5019264;28;20442;-86
2021/03/25 06:13:09;;;;;;;81.90;40.50;;;;;;;;;;5019315;28;20056;-85
2021/03/25 06:15:45;;;;;;;76.60;44.13;;;;;;;;;;5001819;28;20030;-86
2021/03/25 06:18:11;;;;;;;80.75;43.22;;;;;;;;;;5001704;28;20125;-86
2021/03/25 06:20:55;;;;;;;63.10;37.28;;;;;;;;;;5001950;28;20061;-86
2021/03/25 06:23:28;;;;;;;65.95;36.03;;;;;;;;;;5001729;28;20018;-86
2021/03/25 06:26:06;;;;;;;61.53;34.60;;;;;;;;;;5001690;28;20112;-87
2021/03/25 06:28:45;;;;;;;59.58;34.78;;;;;;;;;;5019200;28;20069;-86
2021/03/25 06:31:20;;;;;;;59.75;36.80;;;;;;;;;;5018947;28;20062;-85
2021/03/25 06:33:52;;;;;;;67.63;39.92;;;;;;;;;;5018958;28;20096;-85
2021/03/25 06:36:20;;;;;;;69.50;37.25;;;;;;;;;;5018834;28;20021;-85
2021/03/25 06:38:52;;;;;;;68.22;36.45;;;;;;;;;;5001484;28;20360;-84
2021/03/25 06:41:27;;;;;;;74.60;38.33;;;;;;;;;;5018758;28;20025;-90
2021/03/25 06:43:56;;;;;;;79.15;40.25;;;;;;;;;;5001166;28;20120;-83
2021/03/25 06:46:32;;;;;;;64.70;35.25;;;;;;;;;;5018508;28;20065;-83
2021/03/25 06:49:00;;;;;;;59.80;33.83;;;;;;;;;;5018468;28;20064;-81
2021/03/25 06:51:27;;;;;;;66.97;37.92;;;;;;;;;;5018228;28;20033;-83
2021/03/25 06:54:13;;;;;;;89.68;42.08;;;;;;;;;;5018521;28;20088;-83
2021/03/25 06:56:42;;;;;;;70.82;37.50;;;;;;;;;;5017998;28;20053;-83
2021/03/25 06:59:12;;;;;;;71.50;41.00;;;;;;;;;;5018530;28;20068;-84
2021/03/25 07:01:44;;;;;;;87.63;44.65;;;;;;;;;;5000621;28;20025;-83
2021/03/25 07:04:24;;;;;;;66.05;40.00;;;;;;;;;;5000443;28;20360;-84
2021/03/25 07:06:51;;;;;;;91.63;48.35;;;;;;;;;;5017969;28;20026;-83
2021/03/25 07:09:27;;;;;;;54.53;34.15;;;;;;;;;;5018047;28;20017;-84
2021/03/25 07:11:54;;;;;;;81.82;43.40;;;;;;;;;;5018095;28;20029;-84
2021/03/25 07:14:25;;;;;;;71.00;41.83;;;;;;;;;;5018018;28;20117;-83
2021/03/25 07:16:51;;;;;;;73.32;43.47;;;;;;;;;;5017766;28;20424;-84
2021/03/25 07:19:19;;;;;;;118.18;60.08;;;;;;;;;;5018114;28;20026;-84
2021/03/25 07:21:47;;;;;;;322.00;143.35;;;;;;;;;;5017859;28;20297;-83
2021/03/25 07:24:34;;;;;;;105.28;59.60;;;;;;;;;;5017727;28;20029;-83
2021/03/25 07:27:20;;;;;;;75.82;46.10;;;;;;;;;;5017780;28;20034;-87
2021/03/25 07:30:02;;;;;;;70.80;42.97;;;;;;;;;;4922746;29;20040;-87
2021/03/25 07:32:36;;;;;;;75.95;43.55;;;;;;;;;;4938539;29;20044;-86
2021/03/25 07:35:22;;;;;;;80.63;44.72;;;;;;;;;;4938846;29;20111;-79
2021/03/25 07:37:49;;;;;;;66.47;39.60;;;;;;;;;;4938907;29;20023;-87
2021/03/25 07:40:24;;;;;;;69.82;41.78;;;;;;;;;;4938666;29;20044;-87
2021/03/25 07:42:50;;;;;;;66.07;39.67;;;;;;;;;;4922908;29;20031;-86
2021/03/25 07:45:26;;;;;;;62.42;37.28;;;;;;;;;;4938712;29;20490;-87
2021/03/25 07:47:53;;;;;;;63.25;38.20;;;;;;;;;;4938556;29;20039;-87
2021/03/25 07:50:27;;;;;;;64.38;39.00;;;;;;;;;;4938868;29;20308;-87
2021/03/25 07:52:54;;;;;;;72.05;40.72;;;;;;;;;;4938721;29;20031;-87
2021/03/25 07:55:20;;;;;;;70.47;38.55;;;;;;;;;;4922742;29;20124;-86
2021/03/25 07:57:47;;;;;;;75.53;40.60;;;;;;;;;;4938635;29;20028;-87
2021/03/25 08:00:15;;;;;;;72.18;40.42;;;;;;;;;;4938559;29;20035;-87
2021/03/25 08:02:42;;;;;;;83.88;43.75;;;;;;;;;;4938301;29;20307;-86
2021/03/25 08:05:14;;;;;;;67.90;38.55;;;;;;;;;;4938314;29;20020;-86
2021/03/25 08:07:41;;;;;;;71.75;38.00;;;;;;;;;;5005314;28;20026;-87
2021/03/25 08:10:08;;;;;;;63.38;33.70;;;;;;;;;;5017486;28;20027;-85
2021/03/25 08:12:35;;;;;;;64.50;37.15;;;;;;;;;;5017678;28;20029;-85
2021/03/25 08:15:08;;;;;;;54.70;32.47;;;;;;;;;;4999837;28;20033;-87
2021/03/25 08:17:57;;;;;;;51.05;31.45;;;;;;;;;;5000778;28;20428;-86
2021/03/25 08:20:26;;;;;;;50.75;31.15;;;;;;;;;;5017500;28;20060;-86
2021/03/25 08:23:10;;;;;;;47.17;29.48;;;;;;;;;;5017274;28;20029;-86
2021/03/25 08:25:44;;;;;;;48.90;29.00;;;;;;;;;;5017543;28;20045;-85
2021/03/25 08:28:10;;;;;;;45.95;29.02;;;;;;;;;;5000238;28;20108;-86
2021/03/25 08:30:39;;;;;;;47.40;28.20;;;;;;;;;;4999721;28;20046;-85
2021/03/25 08:33:21;;;;;;;43.30;26.73;;;;;;;;;;5017322;28;20133;-86
2021/03/25 08:35:58;;;;;;;51.83;29.73;;;;;;;;;;5017360;28;20034;-86
2021/03/25 08:38:30;;;;;;;49.90;30.13;;;;;;;;;;5019043;28;20029;-85
2021/03/25 08:41:05;;;;;;;52.70;30.00;;;;;;;;;;5003664;28;20053;-85
2021/03/25 08:43:36;;;;;;;64.40;35.50;;;;;;;;;;5020840;28;20038;-86
2021/03/25 08:46:12;;;;;;;69.15;40.72;;;;;;;;;;5003699;28;20030;-87
2021/03/25 08:48:40;;;;;;;201.98;80.80;;;;;;;;;;5021183;28;20033;-87
2021/03/25 08:51:10;;;;;;;196.35;80.18;;;;;;;;;;5020768;28;20022;-87
2021/03/25 08:53:40;;;;;;;59.83;32.65;;;;;;;;;;5020941;28;20026;-86
2021/03/25 08:56:12;;;;;;;44.15;26.35;;;;;;;;;;5020813;28;20042;-86
2021/03/25 08:58:38;;;;;;;;;;;;;;;;;;5021051;28;20052;-86
2021/03/25 09:01:07;;;;;;;41.97;25.33;;;;;;;;;;5020802;28;19944;-86
2021/03/25 09:03:47;;;;;;;37.58;23.85;;;;;;;;;;5020883;28;20153;-87
2021/03/25 09:06:16;;;;;;;35.00;22.17;;;;;;;;;;5020687;28;20102;-86
2021/03/25 09:08:44;;;;;;;36.80;23.48;;;;;;;;;;5002941;28;20367;-86
2021/03/25 09:11:13;;;;;;;37.45;21.88;;;;;;;;;;5003081;28;20324;-86
2021/03/25 09:13:50;;;;;;;37.42;22.75;;;;;;;;;;5020491;28;20431;-86
2021/03/25 09:16:22;;;;;;;38.90;22.73;;;;;;;;;;5020269;28;20025;-85
2021/03/25 09:18:49;;;;;;;32.67;18.95;;;;;;;;;;5020640;28;20030;-86
2021/03/25 09:21:23;;;;;;;30.48;18.95;;;;;;;;;;5019964;28;20025;-85
2021/03/25 09:24:04;;;;;;;28.20;19.15;;;;;;;;;;5020155;28;20025;-86
2021/03/25 09:26:30;;;;;;;34.80;19.10;;;;;;;;;;5002972;28;20018;-85
2021/03/25 09:29:00;;;;;;;33.63;18.05;;;;;;;;;;5020252;28;20025;-86
2021/03/25 09:31:33;;;;;;;26.33;16.25;;;;;;;;;;5020208;28;20412;-86
2021/03/25 09:34:00;;;;;;;25.30;16.42;;;;;;;;;;5002736;28;20034;-86
2021/03/25 09:36:32;;;;;;;37.50;18.88;;;;;;;;;;5002445;28;20037;-86
2021/03/25 09:38:58;;;;;;;51.88;22.80;;;;;;;;;;5019972;28;20408;-85
2021/03/25 09:41:30;;;;;;;27.08;16.98;;;;;;;;;;5019719;28;20040;-87
2021/03/25 09:44:02;;;;;;;27.35;16.48;;;;;;;;;;5020175;28;20045;-85
2021/03/25 09:46:47;;;;;;;30.30;16.75;;;;;;;;;;5019885;28;20052;-85
2021/03/25 09:51:49;;;;;;;28.00;15.13;;;;;;;;;;5020083;28;20466;-86
2021/03/25 09:54:21;;;;;;;23.38;13.35;;;;;;;;;;5019789;28;20105;-86
2021/03/25 09:56:47;;;;;;;19.88;13.68;;;;;;;;;;5019763;28;20018;-86
2021/03/25 09:59:32;;;;;;;24.27;14.50;;;;;;;;;;5019539;28;20365;-85
2021/03/25 10:01:58;;;;;;;21.50;14.40;;;;;;;;;;5019478;28;20025;-86
2021/03/25 10:04:38;;;;;;;22.55;13.50;;;;;;;;;;5019628;28;20091;-85
2021/03/25 10:07:05;;;;;;;42.90;26.67;;;;;;;;;;5019514;28;20308;-85
2021/03/25 10:09:49;;;;;;;21.15;12.75;;;;;;;;;;5002502;28;20037;-86
2021/03/25 10:12:34;;;;;;;21.45;12.15;;;;;;;;;;5019421;28;20495;-86
2021/03/25 10:15:00;;;;;;;21.70;13.18;;;;;;;;;;5019492;28;20053;-86
2021/03/25 10:17:42;;;;;;;17.00;10.57;;;;;;;;;;5001942;28;20026;-86
2021/03/25 10:20:10;;;;;;;17.90;11.05;;;;;;;;;;5001751;28;20029;-86
2021/03/25 10:22:37;;;;;;;22.73;12.50;;;;;;;;;;5019058;28;20026;-86
2021/03/25 10:25:07;;;;;;;21.08;9.50;;;;;;;;;;5019312;28;20030;-85
2021/03/25 10:27:38;;;;;;;17.55;11.10;;;;;;;;;;5019251;28;20025;-86
2021/03/25 10:30:16;;;;;;;14.15;8.70;;;;;;;;;;5019035;28;20080;-85
2021/03/25 10:32:44;;;;;;;13.82;8.25;;;;;;;;;;5019108;28;20049;-85
2021/03/25 10:35:17;;;;;;;13.07;7.53;;;;;;;;;;5001687;28;20022;-85
2021/03/25 10:37:47;;;;;;;13.00;7.85;;;;;;;;;;5018754;28;20459;-85
2021/03/25 10:40:16;;;;;;;14.88;10.07;;;;;;;;;;5018732;28;20030;-84
2021/03/25 10:42:44;;;;;;;15.27;8.73;;;;;;;;;;5019071;28;20041;-84
2021/03/25 10:45:37;;;;;;;13.88;7.32;;;;;;;;;;5019002;28;20029;-86
2021/03/25 10:48:28;;;;;;;13.23;8.05;;;;;;;;;;4998356;28;20030;-85
2021/03/25 10:51:12;;;;;;;12.85;8.35;;;;;;;;;;4992693;28;20080;-86
2021/03/25 10:53:44;;;;;;;12.88;8.02;;;;;;;;;;5018544;28;20026;-86
2021/03/25 10:56:19;;;;;;;17.63;9.98;;;;;;;;;;5018255;28;20029;-86
2021/03/25 10:58:53;;;;;;;13.07;7.32;;;;;;;;;;5018650;28;20034;-85
2021/03/25 11:01:29;;;;;;;17.33;8.82;;;;;;;;;;5017483;28;20145;-86
2021/03/25 11:03:55;;;;;;;27.58;17.83;;;;;;;;;;5018583;28;20038;-87
2021/03/25 11:06:39;;;;;;;17.95;9.85;;;;;;;;;;5018507;28;20032;-87
2021/03/25 11:09:10;;;;;;;14.95;7.57;;;;;;;;;;5018649;28;20109;-85
2021/03/25 11:11:37;;;;;;;15.32;7.40;;;;;;;;;;5018938;28;20030;-87
2021/03/25 11:14:05;;;;;;;23.08;11.80;;;;;;;;;;5000911;28;20056;-86
2021/03/25 11:16:32;;;;;;;12.07;7.57;;;;;;;;;;5018020;28;20491;-86
2021/03/25 11:19:16;;;;;;;12.73;6.97;;;;;;;;;;5018172;28;20420;-86
2021/03/25 11:21:43;;;;;;;16.35;7.47;;;;;;;;;;5017954;28;20030;-86
2021/03/25 11:24:22;;;;;;;30.13;10.18;;;;;;;;;;5018263;28;20022;-86
2021/03/25 11:26:53;;;;;;;22.60;9.00;;;;;;;;;;5000675;28;20026;-85
2021/03/25 11:29:20;;;;;;;19.75;8.00;;;;;;;;;;5017399;28;20423;-86
2021/03/25 11:31:46;;;;;;;13.77;7.20;;;;;;;;;;5018042;28;20038;-85
2021/03/25 11:34:26;;;;;;;16.30;8.02;;;;;;;;;;5000992;28;20050;-85
2021/03/25 11:36:53;;;;;;;11.60;6.72;;;;;;;;;;5018166;28;20029;-85
2021/03/25 11:39:21;;;;;;;26.02;9.93;;;;;;;;;;5000612;28;20057;-85
2021/03/25 11:41:48;;;;;;;29.23;11.98;;;;;;;;;;5017823;28;20033;-85
2021/03/25 11:44:33;;;;;;;23.38;7.05;;;;;;;;;;5000256;28;20034;-86
2021/03/25 11:47:19;;;;;;;13.05;5.63;;;;;;;;;;5017935;28;20037;-86
2021/03/25 11:49:45;;;;;;;10.50;6.30;;;;;;;;;;5017744;28;20033;-88
2021/03/25 11:52:13;;;;;;;8.40;5.60;;;;;;;;;;5017716;28;20029;-86
2021/03/25 11:54:41;;;;;;;8.88;5.43;;;;;;;;;;5000419;28;20061;-86
2021/03/25 11:57:17;;;;;;;11.90;6.00;;;;;;;;;;4999913;28;20041;-86
2021/03/25 11:59:43;;;;;;;9.90;6.20;;;;;;;;;;4999748;28;20034;-78
2021/03/25 12:02:20;;;;;;;10.38;5.28;;;;;;;;;;5016894;28;20471;-77
2021/03/25 12:04:48;;;;;;;10.68;6.53;;;;;;;;;;5017094;28;20030;-77
2021/03/25 12:07:14;;;;;;;8.80;5.25;;;;;;;;;;5016967;28;20018;-76
2021/03/25 12:09:59;;;;;;;18.13;7.82;;;;;;;;;;4999669;28;20029;-79
2021/03/25 12:12:26;;;;;;;8.82;6.13;;;;;;;;;;5019012;28;20396;-89
2021/03/25 12:14:52;;;;;;;11.38;7.15;;;;;;;;;;5021567;28;20488;-90
2021/03/25 12:17:19;;;;;;;10.05;5.65;;;;;;;;;;5021466;28;20032;-93
2021/03/25 12:19:45;;;;;;;9.40;5.40;;;;;;;;;;5003991;28;20022;-93
2021/03/25 12:22:23;;;;;;;9.20;5.25;;;;;;;;;;5004235;28;20026;-93
2021/03/25 12:24:49;;;;;;;10.43;6.20;;;;;;;;;;5021086;28;20405;-84
2021/03/25 12:27:22;;;;;;;10.82;5.50;;;;;;;;;;5003379;28;20159;-84
2021/03/25 12:29:50;;;;;;;10.75;6.00;;;;;;;;;;5003227;28;20045;-84
2021/03/25 12:32:19;;;;;;;10.75;6.50;;;;;;;;;;5020931;28;20025;-83
2021/03/25 12:34:46;;;;;;;19.92;6.00;;;;;;;;;;5020961;28;20022;-84
2021/03/25 12:37:12;;;;;;;9.48;5.78;;;;;;;;;;5003099;28;20366;-84
2021/03/25 12:39:38;;;;;;;9.50;5.80;;;;;;;;;;5021063;28;20025;-84
2021/03/25 12:42:04;;;;;;;10.48;5.63;;;;;;;;;;5021000;28;20033;-84
2021/03/25 12:44:30;;;;;;;11.20;6.13;;;;;;;;;;5020888;28;20320;-84
2021/03/25 12:46:56;;;;;;;11.35;6.95;;;;;;;;;;5003580;28;20119;-84
2021/03/25 12:49:22;;;;;;;9.90;6.85;;;;;;;;;;5020901;28;20022;-84
2021/03/25 12:51:48;;;;;;;14.20;8.13;;;;;;;;;;5020540;28;20030;-84
2021/03/25 12:54:14;;;;;;;10.90;6.97;;;;;;;;;;5003079;28;20034;-84
2021/03/25 12:56:40;;;;;;;7.75;5.53;;;;;;;;;;5020603;28;20427;-84
2021/03/25 12:59:12;;;;;;;7.47;5.22;;;;;;;;;;5020649;28;20033;-84
2021/03/25 13:01:38;;;;;;;9.07;5.75;;;;;;;;;;5020433;28;20048;-84
2021/03/25 13:04:04;;;;;;;11.65;6.05;;;;;;;;;;5020433;28;20393;-84
2021/03/25 13:06:30;;;;;;;9.32;6.00;;;;;;;;;;5020195;28;20021;-84
2021/03/25 13:08:56;;;;;;;11.93;6.65;;;;;;;;;;5020472;28;20029;-84
2021/03/25 13:11:27;;;;;;;8.23;5.95;;;;;;;;;;5020581;28;20121;-84
2021/03/25 13:13:54;;;;;;;8.45;6.28;;;;;;;;;;5020592;28;20026;-84
2021/03/25 13:16:21;;;;;;;10.93;6.35;;;;;;;;;;5002810;28;20030;-85
2021/03/25 13:18:47;;;;;;;9.48;6.82;;;;;;;;;;5020271;28;20408;-81
2021/03/25 13:21:13;;;;;;;15.65;8.48;;;;;;;;;;5019777;28;20041;-85
2021/03/25 13:23:39;;;;;;;11.85;6.97;;;;;;;;;;5002361;28;20024;-85
2021/03/25 13:26:07;;;;;;;12.25;8.70;;;;;;;;;;5020251;28;20049;-85
2021/03/25 13:28:33;;;;;;;31.50;13.68;;;;;;;;;;5020257;28;20366;-85
2021/03/25 13:31:00;;;;;;;14.50;9.32;;;;;;;;;;5019940;28;20053;-86
2021/03/25 13:33:26;;;;;;;21.05;11.05;;;;;;;;;;5019678;28;20088;-84
2021/03/25 13:35:52;;;;;;;16.75;10.48;;;;;;;;;;5019955;28;20038;-85
2021/03/25 13:38:19;;;;;;;14.88;8.82;;;;;;;;;;5020242;28;20029;-84
2021/03/25 13:40:46;;;;;;;8.80;6.22;;;;;;;;;;5019593;28;20022;-81
2021/03/25 13:43:15;;;;;;;24.20;13.95;;;;;;;;;;5001776;28;20025;-81
2021/03/25 13:45:41;;;;;;;14.20;9.68;;;;;;;;;;5019432;28;20061;-81
2021/03/25 13:48:07;;;;;;;8.05;6.10;;;;;;;;;;5019327;28;20097;-81
2021/03/25 13:50:35;;;;;;;16.88;9.73;;;;;;;;;;5019335;28;20036;-81
2021/03/25 13:53:01;;;;;;;11.90;7.85;;;;;;;;;;5019255;28;20026;-81
2021/03/25 13:55:28;;;;;;;12.27;6.00;;;;;;;;;;5019331;28;20026;-81
2021/03/25 13:57:54;;;;;;;16.05;9.25;;;;;;;;;;5019301;28;20041;-81
2021/03/25 14:00:21;;;;;;;7.80;5.53;;;;;;;;;;5019135;28;20056;-81
2021/03/25 14:02:47;;;;;;;12.75;7.72;;;;;;;;;;5018878;28;20033;-81
2021/03/25 14:05:13;;;;;;;17.05;9.10;;;;;;;;;;5001674;28;20442;-86
2021/03/25 14:07:40;;;;;;;10.63;6.25;;;;;;;;;;5002064;28;20118;-85
2021/03/25 14:10:06;;;;;;;16.25;7.32;;;;;;;;;;5019120;28;20026;-85
2021/03/25 14:12:32;;;;;;;12.55;7.15;;;;;;;;;;5019482;28;20033;-85
2021/03/25 14:14:58;;;;;;;14.18;6.95;;;;;;;;;;5019211;28;20026;-85
2021/03/25 14:17:24;;;;;;;14.70;8.98;;;;;;;;;;5019070;28;20037;-84
2021/03/25 14:19:50;;;;;;;22.58;10.10;;;;;;;;;;5018814;28;20312;-84
2021/03/25 14:22:16;;;;;;;9.20;5.65;;;;;;;;;;5019233;28;20344;-84
2021/03/25 14:24:42;;;;;;;6.90;5.20;;;;;;;;;;5019212;28;20022;-84
2021/03/25 14:27:08;;;;;;;9.35;5.13;;;;;;;;;;5001634;28;20014;-84
2021/03/25 14:29:35;;;;;;;7.65;5.32;;;;;;;;;;5018764;28;20053;-85
2021/03/25 14:32:01;;;;;;;10.45;5.90;;;;;;;;;;5001596;28;20136;-84
2021/03/25 14:34:27;;;;;;;8.18;5.30;;;;;;;;;;5018846;28;20109;-85
2021/03/25 14:36:53;;;;;;;9.55;6.47;;;;;;;;;;5018972;28;20033;-85
2021/03/25 14:39:19;;;;;;;12.00;6.50;;;;;;;;;;5019006;28;20030;-85
2021/03/25 14:41:45;;;;;;;13.27;6.22;;;;;;;;;;5001328;28;20057;-84
2021/03/25 14:44:11;;;;;;;8.48;6.40;;;;;;;;;;5018897;28;20041;-85
2021/03/25 14:46:37;;;;;;;9.73;6.35;;;;;;;;;;5001285;28;20029;-84
2021/03/25 14:49:03;;;;;;;14.07;9.07;;;;;;;;;;5018554;28;20026;-85
2021/03/25 14:51:29;;;;;;;14.93;8.35;;;;;;;;;;5018477;28;20036;-85
2021/03/25 14:53:55;;;;;;;11.57;7.38;;;;;;;;;;5001331;28;20030;-88